Time;durP1;ratioP1;P1;durP2;ratioP2;P2;SDS_P1;SDS_P2;PMS_P1;PMS_P2;Temp;Humidity;BMP_temperature;BMP_pressure;BME280_temperature;BME280_humidity;BME280_pressure;Samples;Min_cycle;Max_cycle;Signal;HPM_P1;HPM_P2
2022/04/01 00:02:24;;;;;;;;;;;;;;;20.89;53.49;167989.69;6225985;23;19920;-96
2022/04/01 00:04:51;;;;;;;;;;;;;;;20.89;53.37;167988.34;6225704;23;20227;-96
2022/04/01 00:07:19;;;;;;;;;;;;;;;20.89;53.38;167988.34;6226408;23;19919;-96
2022/04/01 00:09:46;;;;;;;;;;;;;;;20.87;53.39;167982.75;6226393;23;19943;-96
2022/04/01 00:12:13;;;;;;;;;;;;;;;20.86;53.30;167981.38;6227865;23;19923;-96
2022/04/01 00:14:40;;;;;;;;;;;;;;;20.90;53.22;167991.06;6230305;23;19920;-96
2022/04/01 00:17:07;;;;;;;;;;;;;;;20.90;53.16;167992.50;6226598;23;19919;-96
2022/04/01 00:19:33;;;;;;;;;;;;;;;20.89;53.33;167989.69;6224654;23;19926;-96
2022/04/01 00:22:00;;;;;;;;;;;;;;;20.90;53.28;167991.06;6224434;23;19986;-96
2022/04/01 00:24:27;;;;;;;;;;;;;;;20.89;53.21;167988.34;6225315;23;19920;-96
2022/04/01 00:26:54;;;;;;;;;;;;;;;20.91;53.53;167995.22;6227196;23;19935;-96
2022/04/01 00:29:21;;;;;;;;;;;;;;;20.92;53.34;167996.63;6227692;23;19932;-96
2022/04/01 00:31:48;;;;;;;;;;;;;;;20.92;53.41;167996.63;6226366;23;19920;-96
2022/04/01 00:34:15;;;;;;;;;;;;;;;20.90;53.46;167992.50;6226643;23;19927;-96
2022/04/01 00:36:43;;;;;;;;;;;;;;;20.90;53.34;167991.06;6225929;23;19930;-96
2022/04/01 00:39:12;;;;;;;;;;;;;;;20.92;53.55;167996.63;6226945;23;19919;-96
2022/04/01 00:41:40;;;;;;;;;;;;;;;20.91;53.56;167995.22;6203782;23;19951;-96
2022/04/01 00:44:15;;;;;;;;;;;;;;;20.93;53.50;167999.38;6228653;23;19968;-96
2022/04/01 00:46:42;;;;;;;;;;;;;;;20.90;53.51;167992.50;6229593;23;19923;-96
2022/04/01 00:49:10;;;;;;;;;;;;;;;20.90;53.60;167991.06;6228513;23;19919;-96
2022/04/01 00:51:37;;;;;;;;;;;;;;;20.91;53.65;167995.22;6227829;23;19945;-96
2022/04/01 00:54:05;;;;;;;;;;;;;;;20.91;53.65;167995.22;6228504;23;19927;-96
2022/04/01 00:56:33;;;;;;;;;;;;;;;20.93;53.41;167999.38;6228150;23;19920;-96
2022/04/01 00:59:00;;;;;;;;;;;;;;;20.90;53.61;167992.50;6229343;23;19990;-96
2022/04/01 01:01:26;;;;;;;;;;;;;;;20.91;53.42;167993.84;6204076;23;19920;-96
2022/04/01 01:03:53;;;;;;;;;;;;;;;20.90;53.89;167992.50;6228847;23;19930;-96
2022/04/01 01:06:21;;;;;;;;;;;;;;;20.92;53.90;167998.00;6227599;23;19995;-96
2022/04/01 01:08:48;;;;;;;;;;;;;;;20.93;53.88;167999.38;6227751;23;19935;-96
2022/04/01 01:11:18;;;;;;;;;;;;;;;20.92;53.68;167996.63;6227419;23;19987;-96
2022/04/01 01:13:45;;;;;;;;;;;;;;;20.92;53.91;167996.63;6227764;23;20283;-96
2022/04/01 01:16:14;;;;;;;;;;;;;;;20.91;54.07;167993.84;6229299;22;20229;-96
2022/04/01 01:18:42;;;;;;;;;;;;;;;20.93;54.21;168000.78;6230908;23;19920;-96
2022/04/01 01:21:09;;;;;;;;;;;;;;;20.95;54.11;168003.59;6204154;23;19926;-96
2022/04/01 01:23:37;;;;;;;;;;;;;;;20.94;54.15;168002.16;6227283;23;19926;-96
2022/04/01 01:26:03;;;;;;;;;;;;;;;20.93;53.96;167999.38;6228814;23;19924;-96
2022/04/01 01:28:31;;;;;;;;;;;;;;;20.92;54.19;167996.63;6206174;23;19926;-96
2022/04/01 01:30:59;;;;;;;;;;;;;;;20.94;54.12;168002.16;6229613;23;19959;-96
2022/04/01 01:33:26;;;;;;;;;;;;;;;20.94;54.24;168002.16;6230255;22;19962;-96
2022/04/01 01:35:53;;;;;;;;;;;;;;;20.97;54.21;168009.09;6229588;23;19923;-96
2022/04/01 01:38:20;;;;;;;;;;;;;;;20.94;53.96;168002.16;6227026;23;19999;-96
2022/04/01 01:40:47;;;;;;;;;;;;;;;20.93;54.22;168000.78;6226703;22;19943;-96
2022/04/01 01:43:14;;;;;;;;;;;;;;;20.94;54.18;168002.16;6226832;23;19935;-96
2022/04/01 01:45:40;;;;;;;;;;;;;;;20.95;54.12;168004.94;6226462;23;19919;-96
2022/04/01 01:48:08;;;;;;;;;;;;;;;20.97;53.93;168010.47;6227548;23;19943;-96
2022/04/01 01:56:06;;;;;;;;;;;;;;;20.93;54.20;167999.38;6253754;23;19939;-96
2022/04/01 01:58:34;;;;;;;;;;;;;;;20.95;54.10;168004.94;6225745;23;19924;-96
2022/04/01 02:01:00;;;;;;;;;;;;;;;20.95;53.87;168004.94;6227908;23;19920;-96
2022/04/01 02:03:28;;;;;;;;;;;;;;;20.95;54.16;168004.94;6251261;22;19974;-96
2022/04/01 02:05:55;;;;;;;;;;;;;;;20.96;53.89;168006.31;6228506;23;19920;-96
2022/04/01 02:08:21;;;;;;;;;;;;;;;20.96;53.98;168006.31;6225710;23;19920;-96
2022/04/01 02:10:48;;;;;;;;;;;;;;;20.96;54.21;168007.72;6225470;23;19920;-96
2022/04/01 02:13:16;;;;;;;;;;;;;;;20.96;53.97;168007.72;6226717;23;19966;-96
2022/04/01 02:15:43;;;;;;;;;;;;;;;20.97;54.18;168010.47;6225109;23;20199;-96
2022/04/01 02:18:10;;;;;;;;;;;;;;;20.96;54.23;168007.72;6226626;23;20160;-96
2022/04/01 02:20:37;;;;;;;;;;;;;;;20.95;54.23;168003.59;6224643;23;19919;-96
2022/04/01 02:23:04;;;;;;;;;;;;;;;20.96;54.19;168007.72;6225010;23;20263;-96
2022/04/01 02:25:31;;;;;;;;;;;;;;;20.97;54.00;168010.47;6225849;22;19951;-96
2022/04/01 02:27:58;;;;;;;;;;;;;;;20.97;53.89;168010.47;6224876;23;19919;-96
2022/04/01 02:30:25;;;;;;;;;;;;;;;20.95;54.00;168003.59;6225463;23;20187;-96
2022/04/01 02:32:52;;;;;;;;;;;;;;;20.95;54.18;168004.94;6225007;23;19919;-96
2022/04/01 02:35:20;;;;;;;;;;;;;;;20.95;54.10;168004.94;6226251;23;19987;-96
2022/04/01 02:37:47;;;;;;;;;;;;;;;20.96;53.97;168007.72;6226032;23;20271;-96
2022/04/01 02:40:14;;;;;;;;;;;;;;;20.96;53.97;168007.72;6224967;23;19919;-96
2022/04/01 02:42:41;;;;;;;;;;;;;;;20.97;54.15;168009.09;6225262;23;19927;-96
2022/04/01 02:45:09;;;;;;;;;;;;;;;20.95;53.90;168004.94;6225931;23;19949;-96
2022/04/01 02:47:39;;;;;;;;;;;;;;;20.93;53.97;168000.78;6226059;23;20263;-96
2022/04/01 02:50:07;;;;;;;;;;;;;;;20.97;54.04;168010.47;6251559;22;20176;-96
2022/04/01 02:52:34;;;;;;;;;;;;;;;20.97;54.16;168010.47;6226397;23;19960;-96
2022/04/01 02:55:00;;;;;;;;;;;;;;;20.95;54.35;168004.94;6228911;23;20286;-96
2022/04/01 02:57:27;;;;;;;;;;;;;;;20.95;54.22;168004.94;6226360;23;19919;-96
2022/04/01 02:59:54;;;;;;;;;;;;;;;20.95;54.32;168003.59;6225904;23;19995;-96
2022/04/01 03:02:20;;;;;;;;;;;;;;;20.96;54.60;168007.72;6226046;23;19987;-96
2022/04/01 03:04:48;;;;;;;;;;;;;;;20.97;54.46;168010.47;6225858;23;19970;-96
2022/04/01 03:07:17;;;;;;;;;;;;;;;20.96;54.28;168007.72;6226438;22;19928;-96
2022/04/01 03:09:43;;;;;;;;;;;;;;;20.97;54.32;168010.47;6225883;23;19990;-96
2022/04/01 03:12:11;;;;;;;;;;;;;;;20.95;54.45;168003.59;6226516;22;19911;-96
2022/04/01 03:14:38;;;;;;;;;;;;;;;20.94;54.65;168002.16;6225597;23;20230;-96
2022/04/01 03:17:06;;;;;;;;;;;;;;;20.96;54.80;168007.72;6255183;23;19931;-96
2022/04/01 03:19:33;;;;;;;;;;;;;;;20.96;54.49;168007.72;6230141;23;19920;-96
2022/04/01 03:22:00;;;;;;;;;;;;;;;20.97;54.63;168010.47;6227813;23;19920;-96
2022/04/01 03:24:27;;;;;;;;;;;;;;;20.95;54.55;168003.59;6226864;23;19926;-96
2022/04/01 03:26:53;;;;;;;;;;;;;;;20.94;54.55;168002.16;6226413;23;19923;-96
2022/04/01 03:29:20;;;;;;;;;;;;;;;20.97;54.84;168009.09;6227635;22;19920;-96
2022/04/01 03:31:48;;;;;;;;;;;;;;;20.97;54.81;168010.47;6225631;23;19926;-96
2022/04/01 03:34:15;;;;;;;;;;;;;;;20.97;54.69;168009.09;6225155;23;20306;-96
2022/04/01 03:36:42;;;;;;;;;;;;;;;20.95;54.40;168003.59;6225467;22;19995;-96
2022/04/01 03:39:12;;;;;;;;;;;;;;;20.95;54.57;168003.59;6226533;23;20267;-96
2022/04/01 03:41:39;;;;;;;;;;;;;;;20.94;54.92;168002.16;6228366;23;20267;-96
2022/04/01 03:44:06;;;;;;;;;;;;;;;20.98;54.84;168011.91;6227211;23;20043;-96
2022/04/01 03:46:44;;;;;;;;;;;;;;;20.97;54.91;168010.47;6225776;23;20290;-96
2022/04/01 03:49:12;;;;;;;;;;;;;;;20.96;54.77;168007.72;6225209;23;19926;-96
2022/04/01 03:51:42;;;;;;;;;;;;;;;20.94;54.86;168002.16;6228122;23;19998;-96
2022/04/01 03:54:10;;;;;;;;;;;;;;;20.95;54.90;168004.94;6229354;22;19920;-96
2022/04/01 03:56:37;;;;;;;;;;;;;;;20.96;54.96;168007.72;6201195;23;19927;-96
2022/04/01 03:59:05;;;;;;;;;;;;;;;20.95;54.86;168004.94;6226004;23;20445;-96
2022/04/01 04:01:34;;;;;;;;;;;;;;;20.97;55.25;168009.09;6226148;23;19926;-96
2022/04/01 04:04:01;;;;;;;;;;;;;;;20.99;55.14;168014.63;6231019;23;19920;-96
2022/04/01 04:06:32;;;;;;;;;;;;;;;21.02;54.76;168024.34;6230343;23;19936;-96
2022/04/01 04:09:08;;;;;;;;;;;;;;;20.98;54.60;168013.25;6231589;23;19919;-96
2022/04/01 04:44:48;;;;;;;;;;;;;;;20.83;51.50;167971.72;6230151;22;19920;-96
2022/04/01 04:47:34;;;;;;;;;;;;;;;20.90;51.46;167991.06;6293260;22;19947;-96
2022/04/01 04:50:06;;;;;;;;;;;;;;;20.93;51.31;167999.38;6291678;22;19935;-96
2022/04/01 04:52:38;;;;;;;;;;;;;;;20.89;51.27;167988.34;6265293;22;19969;-96
2022/04/01 04:55:17;;;;;;;;;;;;;;;20.86;51.10;167980.03;6263986;22;20341;-96
2022/04/01 04:57:45;;;;;;;;;;;;;;;20.87;50.99;167982.75;6264890;22;19919;-96
2022/04/01 05:00:16;;;;;;;;;;;;;;;20.90;50.89;167992.50;6264262;22;20232;-96
2022/04/01 05:02:43;;;;;;;;;;;;;;;20.90;50.54;167991.06;6265751;22;19946;-96
2022/04/01 05:05:12;;;;;;;;;;;;;;;20.86;50.56;167980.03;6267294;22;19926;-96
2022/04/01 05:07:44;;;;;;;;;;;;;;;20.81;50.63;167967.56;6268328;22;19926;-96
2022/04/01 05:10:18;;;;;;;;;;;;;;;20.87;50.28;167984.19;6264352;22;19919;-96
2022/04/01 05:12:58;;;;;;;;;;;;;;;20.85;50.26;167978.59;6266258;22;19994;-96
2022/04/01 05:15:32;;;;;;;;;;;;;;;20.83;50.13;167971.72;6264285;22;20271;-96
2022/04/01 05:18:14;;;;;;;;;;;;;;;20.85;49.84;167978.59;6290317;22;19920;-96
2022/04/01 05:20:51;;;;;;;;;;;;;;;20.86;50.04;167980.03;6264208;22;19919;-96
2022/04/01 05:23:26;;;;;;;;;;;;;;;20.87;49.71;167982.75;6265372;22;19920;-96
2022/04/01 05:26:05;;;;;;;;;;;;;;;20.85;49.60;167978.59;6264781;22;19919;-96
2022/04/01 05:28:40;;;;;;;;;;;;;;;20.85;49.59;167977.25;6264009;22;19926;-96
2022/04/01 05:31:30;;;;;;;;;;;;;;;20.85;49.68;167977.25;6262572;22;20340;-96
2022/04/01 05:34:03;;;;;;;;;;;;;;;20.82;49.60;167970.28;6264768;22;19919;-96
2022/04/01 05:36:36;;;;;;;;;;;;;;;20.83;49.39;167971.72;6264011;22;19919;-96
2022/04/01 05:39:04;;;;;;;;;;;;;;;20.81;49.14;167967.56;6263943;22;19934;-96
2022/04/01 05:41:31;;;;;;;;;;;;;;;20.83;49.16;167971.72;6264738;22;19919;-96
2022/04/01 05:44:05;;;;;;;;;;;;;;;20.83;49.07;167971.72;6291131;22;19963;-96
2022/04/01 05:46:36;;;;;;;;;;;;;;;20.83;49.16;167971.72;6263269;22;19919;-96
2022/04/01 05:49:03;;;;;;;;;;;;;;;20.81;49.11;167967.56;6261748;22;20274;-96
2022/04/01 05:51:32;;;;;;;;;;;;;;;20.80;48.84;167963.34;6261478;22;19919;-96
2022/04/01 05:54:00;;;;;;;;;;;;;;;20.79;49.00;167962.00;6261250;22;20343;-96
2022/04/01 05:56:28;;;;;;;;;;;;;;;20.79;48.95;167960.63;6263831;22;19959;-96
2022/04/01 05:58:56;;;;;;;;;;;;;;;20.79;48.72;167960.63;6265213;22;19919;-96
2022/04/01 06:01:37;;;;;;;;;;;;;;;20.79;48.64;167960.63;6242368;22;19987;-96
2022/04/01 06:04:07;;;;;;;;;;;;;;;20.76;48.87;167953.69;6266651;22;19943;-96
2022/04/01 06:06:46;;;;;;;;;;;;;;;20.76;48.79;167955.03;6266757;22;19920;-96
2022/04/01 06:09:25;;;;;;;;;;;;;;;20.75;48.80;167952.31;6240033;22;19925;-96
2022/04/01 06:11:57;;;;;;;;;;;;;;;20.75;48.74;167950.88;6264578;22;20236;-96
2022/04/01 06:15:06;;;;;;;;;;;;;;;20.76;48.67;167955.03;6266369;22;19919;-96
2022/04/01 06:17:54;;;;;;;;;;;;;;;20.72;48.58;167944.00;6174465;23;19927;-96
2022/04/01 06:20:24;;;;;;;;;;;;;;;20.72;48.46;167942.56;6174259;23;19943;-96
2022/04/01 06:23:01;;;;;;;;;;;;;;;20.73;48.44;167946.75;6234374;22;19926;-96
2022/04/01 06:25:38;;;;;;;;;;;;;;;20.72;48.39;167944.00;6266960;22;19926;-96
2022/04/01 06:28:08;;;;;;;;;;;;;;;20.73;48.16;167945.38;6265696;22;20234;-96
2022/04/01 06:30:40;;;;;;;;;;;;;;;20.71;48.41;167941.22;6266520;22;19986;-96
2022/04/01 06:33:15;;;;;;;;;;;;;;;20.72;48.26;167944.00;6264415;22;19919;-96
2022/04/01 06:35:56;;;;;;;;;;;;;;;20.70;48.20;167938.44;6262354;22;19920;-96
2022/04/01 06:38:44;;;;;;;;;;;;;;;20.68;48.35;167932.91;6268661;22;19930;-96
2022/04/01 06:41:23;;;;;;;;;;;;;;;20.69;48.31;167935.69;6265541;22;20242;-96
2022/04/01 06:43:51;;;;;;;;;;;;;;;20.67;48.34;167930.13;6264210;22;19926;-96
2022/04/01 06:46:18;;;;;;;;;;;;;;;20.69;48.20;167935.69;6258939;23;19919;-96
2022/04/01 06:48:55;;;;;;;;;;;;;;;20.69;48.22;167934.28;6260859;23;19920;-96
2022/04/01 06:51:39;;;;;;;;;;;;;;;20.68;48.09;167932.91;6260329;23;20287;-96
2022/04/01 06:54:09;;;;;;;;;;;;;;;20.67;48.13;167930.13;6258539;23;19967;-96
2022/04/01 06:56:36;;;;;;;;;;;;;;;20.66;48.17;167927.31;6258667;23;19927;-96
2022/04/01 06:59:05;;;;;;;;;;;;;;;20.67;48.21;167930.13;6260840;23;19931;-96
2022/04/01 07:01:46;;;;;;;;;;;;;;;20.67;47.95;167930.13;6260959;23;19919;-96
2022/04/01 07:04:35;;;;;;;;;;;;;;;20.66;48.10;167927.31;6264899;23;19920;-97
2022/04/01 07:10:58;;;;;;;;;;;;;;;20.61;48.08;167913.44;6254770;23;19961;-96
2022/04/01 07:13:25;;;;;;;;;;;;;;;20.63;47.72;167918.97;6253785;23;20160;-96
2022/04/01 07:15:54;;;;;;;;;;;;;;;20.63;48.01;167918.97;6256652;23;20168;-96
2022/04/01 07:18:36;;;;;;;;;;;;;;;20.64;47.99;167921.75;6271211;22;19923;-96
2022/04/01 07:38:20;;;;;;;;;;;;;;;20.59;47.51;167907.94;6260748;22;19950;-96
2022/04/01 07:40:58;;;;;;;;;;;;;;;20.60;47.71;167910.66;6216230;23;19945;-96
2022/04/01 07:43:42;;;;;;;;;;;;;;;20.58;47.54;167906.50;6265763;23;19920;-96
2022/04/01 07:46:32;;;;;;;;;;;;;;;20.59;47.62;167909.28;6243116;23;19920;-96
2022/04/01 07:49:12;;;;;;;;;;;;;;;20.58;47.50;167905.13;6268012;23;19923;-96
2022/04/01 07:52:11;;;;;;;;;;;;;;;20.57;47.60;167903.78;6244032;23;19919;-96
2022/04/01 07:54:59;;;;;;;;;;;;;;;20.57;47.64;167903.78;6243161;23;20286;-96
2022/04/01 07:57:32;;;;;;;;;;;;;;;20.56;47.42;167899.63;6261634;23;19919;-96
2022/04/01 08:00:59;;;;;;;;;;;;;;;20.57;47.58;167903.78;6265673;23;19964;-96
2022/04/01 08:03:35;;;;;;;;;;;;;;;20.56;47.70;167901.00;6256324;23;19919;-96
2022/04/01 08:06:15;;;;;;;;;;;;;;;20.56;47.64;167901.00;6243248;23;19946;-96
2022/04/01 08:09:15;;;;;;;;;;;;;;;20.56;47.61;167899.63;6267904;23;19919;-96
2022/04/01 08:14:59;;;;;;;;;;;;;;;20.52;47.52;167889.88;6244163;23;19970;-96
2022/04/01 08:17:28;;;;;;;;;;;;;;;20.54;47.67;167894.06;6228876;23;20011;-96
2022/04/01 08:20:08;;;;;;;;;;;;;;;20.54;47.71;167895.47;6229847;23;20218;-96
2022/04/01 08:22:36;;;;;;;;;;;;;;;20.57;47.44;167902.34;6229018;23;19931;-96
2022/04/01 08:25:05;;;;;;;;;;;;;;;20.57;47.58;167902.34;6201614;23;19990;-96
2022/04/01 08:27:32;;;;;;;;;;;;;;;20.54;47.48;167895.47;6225701;23;19946;-96
2022/04/01 08:29:59;;;;;;;;;;;;;;;20.55;47.61;167896.84;6225291;23;19935;-96
2022/04/01 08:32:27;;;;;;;;;;;;;;;20.54;47.42;167894.06;6226006;23;20290;-96
2022/04/01 08:34:54;;;;;;;;;;;;;;;20.55;47.45;167896.84;6224369;23;19919;-96
2022/04/01 08:37:21;;;;;;;;;;;;;;;20.54;47.43;167894.06;6225214;23;19974;-96
2022/04/01 08:39:50;;;;;;;;;;;;;;;20.53;47.30;167892.69;6226267;23;19920;-96
2022/04/01 08:42:17;;;;;;;;;;;;;;;20.52;47.30;167889.88;6226157;23;19990;-96
2022/04/01 08:44:49;;;;;;;;;;;;;;;20.53;47.42;167891.31;6226930;23;19919;-96
2022/04/01 08:47:19;;;;;;;;;;;;;;;20.52;47.29;167888.53;6227215;23;19936;-96
2022/04/01 08:49:48;;;;;;;;;;;;;;;20.47;47.26;167876.06;6251306;23;20275;-96
2022/04/01 08:52:18;;;;;;;;;;;;;;;20.47;46.88;167874.66;6225994;23;19986;-96
2022/04/01 08:54:48;;;;;;;;;;;;;;;20.49;47.04;167881.59;6228829;23;19927;-96
2022/04/01 08:57:18;;;;;;;;;;;;;;;20.50;47.08;167882.94;6228079;23;19920;-96
2022/04/01 08:59:45;;;;;;;;;;;;;;;20.44;47.02;167866.34;6228382;23;19964;-96
2022/04/01 09:02:14;;;;;;;;;;;;;;;20.40;47.04;167858.03;6230729;23;19920;-96
2022/04/01 09:04:41;;;;;;;;;;;;;;;20.44;47.02;167867.75;6227783;23;20234;-96
2022/04/01 09:07:11;;;;;;;;;;;;;;;20.45;47.07;167869.13;6228436;23;19999;-96
2022/04/01 09:09:38;;;;;;;;;;;;;;;20.43;46.98;167863.59;6229568;23;20051;-96
2022/04/01 09:12:13;;;;;;;;;;;;;;;20.39;46.97;167853.88;6228120;23;19923;-96
2022/04/01 09:14:41;;;;;;;;;;;;;;;20.40;46.83;167856.66;6228362;23;19926;-96
2022/04/01 09:17:10;;;;;;;;;;;;;;;20.44;46.85;167867.75;6228829;23;19926;-96
2022/04/01 09:19:45;;;;;;;;;;;;;;;20.43;46.84;167864.97;6231588;23;19920;-96
2022/04/01 09:22:17;;;;;;;;;;;;;;;20.36;46.85;167846.94;6229603;23;19920;-96
2022/04/01 09:24:53;;;;;;;;;;;;;;;20.42;46.77;167862.19;6233271;23;19950;-96
2022/04/01 09:27:38;;;;;;;;;;;;;;;20.42;46.95;167862.19;6229317;23;19942;-96
2022/04/01 09:30:08;;;;;;;;;;;;;;;20.41;46.62;167860.81;6229110;23;19939;-96
2022/04/01 09:32:42;;;;;;;;;;;;;;;20.36;46.89;167845.56;6227910;23;19920;-96
2022/04/01 09:35:11;;;;;;;;;;;;;;;20.33;46.54;167837.25;6205013;23;19920;-96
2022/04/01 09:37:46;;;;;;;;;;;;;;;20.36;46.78;167846.94;6231761;23;19963;-96
2022/04/01 09:40:15;;;;;;;;;;;;;;;20.37;46.74;167849.72;6229276;23;19931;-96
2022/04/01 09:42:50;;;;;;;;;;;;;;;20.32;46.87;167835.91;6229805;23;19998;-96
2022/04/01 09:45:21;;;;;;;;;;;;;;;20.30;46.80;167828.97;6232040;23;19964;-96
2022/04/01 09:48:08;;;;;;;;;;;;;;;20.34;46.61;167840.06;6231990;23;19923;-96
2022/04/01 09:50:40;;;;;;;;;;;;;;;20.34;46.68;167840.06;6231217;23;19920;-96
2022/04/01 09:53:14;;;;;;;;;;;;;;;20.31;46.70;167831.75;6231022;23;19954;-96
2022/04/01 09:55:43;;;;;;;;;;;;;;;20.28;46.62;167824.81;6230798;23;20219;-96
2022/04/01 09:58:15;;;;;;;;;;;;;;;20.31;46.78;167833.09;6230944;23;19926;-96
2022/04/01 10:00:44;;;;;;;;;;;;;;;20.33;46.54;167838.63;6231471;23;19942;-96
2022/04/01 10:03:15;;;;;;;;;;;;;;;20.33;46.55;167837.25;6232704;23;19920;-96
2022/04/01 10:05:45;;;;;;;;;;;;;;;20.26;46.63;167817.88;6231696;23;19920;-96
2022/04/01 10:08:18;;;;;;;;;;;;;;;20.26;46.67;167817.88;6236924;22;19938;-96
2022/04/01 10:10:51;;;;;;;;;;;;;;;20.33;46.74;167837.25;6234773;23;19920;-96
2022/04/01 10:13:29;;;;;;;;;;;;;;;20.32;46.42;167835.91;6235052;23;20179;-96
2022/04/01 10:15:58;;;;;;;;;;;;;;;20.26;46.55;167817.88;6236688;23;19959;-96
2022/04/01 10:18:49;;;;;;;;;;;;;;;20.23;46.37;167810.94;6241575;23;19919;-96
2022/04/01 10:21:19;;;;;;;;;;;;;;;20.28;46.53;167824.81;6236231;23;19959;-96
2022/04/01 10:23:55;;;;;;;;;;;;;;;20.30;46.66;167828.97;6221004;23;19942;-96
2022/04/01 10:26:22;;;;;;;;;;;;;;;20.23;46.54;167812.34;6227478;23;19919;-96
2022/04/01 10:28:52;;;;;;;;;;;;;;;20.23;46.31;167810.94;6228160;23;19965;-96
2022/04/01 10:31:20;;;;;;;;;;;;;;;20.26;46.62;167819.28;6237781;23;19926;-96
2022/04/01 10:33:47;;;;;;;;;;;;;;;20.26;46.64;167819.28;6234640;23;19923;-96
2022/04/01 15:03:18;;;;;;;;;;;;;;;21.74;43.63;168218.41;6230090;22;19956;-96
2022/04/01 15:08:51;;;;;;;;;;;;;;;21.57;43.67;168171.28;6240035;22;19919;-96
2022/04/01 15:17:34;;;;;;;;;;;;;;;21.50;44.39;168153.28;6239903;22;19919;-96
2022/04/01 15:20:18;;;;;;;;;;;;;;;21.47;44.35;168144.91;6233423;23;19919;-96
2022/04/01 15:22:53;;;;;;;;;;;;;;;21.85;43.96;168246.13;6263912;23;19919;-96
2022/04/01 15:58:13;;;;;;;;;;;;;;;21.26;45.48;168088.09;6257001;22;19923;-96
2022/04/01 16:01:02;;;;;;;;;;;;;;;20.93;46.51;167999.38;6256446;23;19960;-96
2022/04/01 16:03:57;;;;;;;;;;;;;;;21.03;45.95;168027.09;6215668;23;19919;-96
2022/04/01 16:10:03;;;;;;;;;;;;;;;21.03;46.00;168025.72;6255979;23;19965;-96
2022/04/01 16:12:51;;;;;;;;;;;;;;;21.03;46.05;168025.72;6235044;23;20297;-96
2022/04/01 16:15:23;;;;;;;;;;;;;;;20.98;45.89;168013.25;6237785;23;19937;-96
2022/04/01 16:17:53;;;;;;;;;;;;;;;21.00;46.29;168018.78;6259725;22;19925;-96
2022/04/01 16:50:25;;;;;;;;;;;;;;;21.17;45.17;168063.13;6238380;22;19919;-96
2022/04/01 16:59:26;;;;;;;;;;;;;;;21.23;45.42;168081.16;6258566;22;19969;-96
2022/04/01 17:04:34;;;;;;;;;;;;;;;21.21;45.20;168074.22;6245859;22;19920;-96
2022/04/01 17:14:04;;;;;;;;;;;;;;;21.18;45.40;168065.91;6254312;22;19971;-96
2022/04/01 17:29:12;;;;;;;;;;;;;;;21.26;45.41;168089.47;6222981;22;19994;-96
2022/04/01 17:31:55;;;;;;;;;;;;;;;21.34;45.14;168108.88;6236914;23;19947;-96
2022/04/01 17:34:38;;;;;;;;;;;;;;;21.34;44.95;168110.25;6235066;23;19920;-96
2022/04/01 17:40:36;;;;;;;;;;;;;;;21.26;45.15;168088.09;6185392;23;19975;-96
2022/04/01 17:57:42;;;;;;;;;;;;;;;21.24;45.23;168082.53;6235541;22;19920;-96
2022/04/01 18:00:16;;;;;;;;;;;;;;;21.32;44.87;168103.31;6234182;23;19943;-96
2022/04/01 18:02:48;;;;;;;;;;;;;;;21.29;45.06;168096.41;6230986;23;20006;-96
2022/04/01 18:05:18;;;;;;;;;;;;;;;21.30;45.10;168099.16;6229206;23;20156;-96
2022/04/01 18:07:49;;;;;;;;;;;;;;;21.35;45.20;168113.03;6231353;23;20039;-96
2022/04/01 18:10:17;;;;;;;;;;;;;;;21.18;45.58;168065.91;6227976;23;19919;-96
2022/04/01 18:12:44;;;;;;;;;;;;;;;21.17;45.61;168064.53;6229826;23;19920;-96
2022/04/01 18:15:11;;;;;;;;;;;;;;;21.24;45.60;168083.94;6227000;23;20279;-96
2022/04/01 18:17:44;;;;;;;;;;;;;;;21.20;45.44;168071.44;6253486;23;19991;-96
2022/04/01 18:20:12;;;;;;;;;;;;;;;21.27;45.60;168090.84;6228211;23;19919;-96
2022/04/01 18:22:39;;;;;;;;;;;;;;;21.25;45.48;168086.69;6231156;23;19936;-96
2022/04/01 18:25:14;;;;;;;;;;;;;;;21.29;45.67;168096.41;6225502;23;20002;-96
2022/04/01 18:28:01;;;;;;;;;;;;;;;21.27;45.30;168090.84;6227550;23;19919;-96
2022/04/01 18:30:30;;;;;;;;;;;;;;;21.25;45.48;168085.31;6226751;23;19954;-96
2022/04/01 18:33:01;;;;;;;;;;;;;;;21.31;45.49;168101.94;6226306;23;19919;-95
2022/04/01 18:35:35;;;;;;;;;;;;;;;21.37;45.36;168118.56;6259941;23;19926;-96
2022/04/01 18:40:52;;;;;;;;;;;;;;;21.29;45.48;168096.41;6253806;22;19920;-96
2022/04/01 18:43:22;;;;;;;;;;;;;;;21.38;45.51;168119.97;6226778;23;19942;-95
2022/04/01 18:45:49;;;;;;;;;;;;;;;21.41;45.56;168129.66;6220392;23;19994;-96
2022/04/01 18:48:15;;;;;;;;;;;;;;;21.40;45.33;168126.88;6223852;23;19966;-95
2022/04/01 18:50:45;;;;;;;;;;;;;;;21.29;45.43;168097.78;6223692;23;19926;-94
2022/04/01 18:53:14;;;;;;;;;;;;;;;21.61;44.90;168183.72;6225332;23;19923;-96
2022/04/01 18:55:48;;;;;;;;;;;;;;;21.70;44.69;168207.31;6229170;23;19939;-96
2022/04/01 18:58:15;;;;;;;;;;;;;;;21.79;44.71;168230.88;6226695;23;19919;-96
2022/04/01 19:00:44;;;;;;;;;;;;;;;21.83;44.39;168240.63;6226973;23;19927;-96
2022/04/01 19:03:27;;;;;;;;;;;;;;;21.75;44.39;168221.19;6228298;23;19926;-96
2022/04/01 19:11:33;;;;;;;;;;;;;;;21.89;44.37;168258.59;6226990;22;19946;-96
2022/04/01 19:14:03;;;;;;;;;;;;;;;21.82;44.38;168239.19;6226230;23;19926;-96
2022/04/01 19:16:35;;;;;;;;;;;;;;;21.74;44.22;168218.41;6226692;23;19920;-96
2022/04/01 19:19:35;;;;;;;;;;;;;;;21.76;44.33;168223.94;6227562;23;19920;-96
2022/04/01 19:22:06;;;;;;;;;;;;;;;21.76;44.34;168222.56;6220031;23;19926;-95
2022/04/01 19:24:35;;;;;;;;;;;;;;;21.83;44.20;168241.97;6252100;23;19947;-96
2022/04/01 19:27:06;;;;;;;;;;;;;;;21.96;43.60;168276.66;6230363;23;20244;-96
2022/04/01 19:29:42;;;;;;;;;;;;;;;22.03;43.59;168294.66;6232185;23;19954;-96
2022/04/01 19:32:13;;;;;;;;;;;;;;;21.97;43.73;168279.38;6235601;23;19951;-96
2022/04/01 19:34:42;;;;;;;;;;;;;;;21.86;43.96;168248.94;6226210;23;19935;-96
2022/04/01 19:37:12;;;;;;;;;;;;;;;21.78;44.02;168229.50;6227801;23;19935;-96
2022/04/01 19:39:43;;;;;;;;;;;;;;;21.84;43.70;168243.34;6228032;23;20193;-96
2022/04/01 19:42:10;;;;;;;;;;;;;;;21.91;43.72;168262.75;6225391;23;19927;-96
2022/04/01 19:44:44;;;;;;;;;;;;;;;21.91;43.46;168262.75;6227741;23;19919;-96
2022/04/01 19:47:14;;;;;;;;;;;;;;;21.77;43.54;168226.72;6224595;23;19930;-96
2022/04/01 19:49:42;;;;;;;;;;;;;;;21.71;43.89;168210.09;6222699;23;19924;-96
2022/04/01 19:52:11;;;;;;;;;;;;;;;21.71;43.77;168210.09;6229504;23;19927;-96
2022/04/01 19:54:39;;;;;;;;;;;;;;;21.90;43.68;168259.97;6227792;23;20194;-96
2022/04/01 19:57:06;;;;;;;;;;;;;;;21.94;43.67;168271.06;6226587;23;19926;-96
2022/04/01 19:59:39;;;;;;;;;;;;;;;21.95;43.50;168273.88;6226956;23;19999;-96
2022/04/01 20:02:06;;;;;;;;;;;;;;;21.90;43.87;168259.97;6227558;23;20152;-96
2022/04/01 20:04:36;;;;;;;;;;;;;;;21.85;44.08;168246.13;6227719;23;20191;-96
2022/04/01 20:07:06;;;;;;;;;;;;;;;21.90;43.93;168259.97;6201667;23;19939;-96
2022/04/01 20:09:34;;;;;;;;;;;;;;;21.92;43.74;168265.56;6226049;23;19924;-96
2022/04/01 20:12:01;;;;;;;;;;;;;;;21.91;43.66;168264.19;6225104;23;20267;-96
2022/04/01 20:14:30;;;;;;;;;;;;;;;21.88;43.89;168254.44;6226544;23;19919;-96
2022/04/01 20:16:57;;;;;;;;;;;;;;;21.85;43.85;168246.13;6227196;23;19927;-96
2022/04/01 20:19:26;;;;;;;;;;;;;;;21.90;43.93;168259.97;6205787;23;19943;-96
2022/04/01 20:21:57;;;;;;;;;;;;;;;21.95;43.62;168273.88;6228750;23;19935;-96
2022/04/01 20:24:25;;;;;;;;;;;;;;;21.95;43.74;168273.88;6229819;23;20222;-96
2022/04/01 20:26:53;;;;;;;;;;;;;;;21.90;43.74;168259.97;6226375;23;19926;-96
2022/04/01 20:29:25;;;;;;;;;;;;;;;21.93;43.46;168269.72;6226259;23;19919;-96
2022/04/01 20:32:05;;;;;;;;;;;;;;;21.95;43.56;168275.22;6228281;23;19920;-96
